Nearby METAR Reports

 

KIND - Indianapolis, Indiana, USA
Distance from station: SW 6mi, 9km
Updated: Mar 23 2019 4:54am
Clear
Clear
 Wind from N
Wind: N 5 mph , 7 km/h
Temperature: 27°F , -3°C
Wind Chill: 21°F , -6°C
Dew Point: 19°F , -7°C
Humidity: 74%
Barometer: 30.25 inHg , 1024.4 hPa
Clouds: Clear
Visibility: 10 miles , 16 km
2019/03/23 08:54 KIND 230854Z 35004KT 10SM CLR M03/M07 A3025 RMK AO2 SLP249 T10281067 50008
KEYE - Indianapolis, Indiana, USA
Distance from station: NW 5mi, 8km
Updated: Mar 23 2019 4:53am
Clear
Clear
 Wind from N
Wind: N 3 mph , 6 km/h
Temperature: 28°F , -2°C
Dew Point: 19°F , -7°C
Humidity: 69%
Barometer: 30.25 inHg , 1024.4 hPa
Clouds: Clear
Visibility: 10 miles , 16 km
2019/03/23 08:53 KEYE 230853Z AUTO 36003KT 10SM CLR M02/M07 A3025 RMK AO2 SLP248 T10221067 51008
 
KTYQ - Indianapolis Exc, Indiana, USA
Distance from station: N 17mi, 28km
Updated: Mar 23 2019 5:15am
Clear
Clear
 Wind from calm
Wind: Calm
Temperature: 23°F , -5°C
Dew Point: 21°F , -6°C
Humidity: 93%
Barometer: 30.26 inHg , 1024.7 hPa
Clouds: Clear
Visibility: 10 miles , 16 km
2019/03/23 09:15 KTYQ 230915Z AUTO 00000KT 10SM CLR M05/M06 A3026 RMK AO2 T10541058
KGEZ - Shelbyville, Indiana, USA
Distance from station: ESE 27mi, 43km
Updated: Mar 23 2019 4:53am
Clear
Clear
 Wind from WNW
Wind: WNW 5 mph , 7 km/h
Temperature: 25°F , -4°C
Wind Chill: 19°F , -7°C
Dew Point: 19°F , -7°C
Humidity: 80%
Barometer: 30.25 inHg , 1024.4 hPa
Clouds: Clear
Visibility: 10 miles , 16 km
2019/03/23 08:53 KGEZ 230853Z AUTO 30004KT 10SM CLR M04/M07 A3025 RMK AO2 SLP249 T10441072 51012
 
KAID - Anderson Municip, Indiana, USA
Distance from station: NE 40mi, 64km
Updated: Mar 23 2019 5:15am
Clear
Clear
 Wind from W
Wind: W 3 mph , 6 km/h
Temperature: 25°F , -4°C
Dew Point: 23°F , -5°C
Humidity: 93%
Barometer: 30.25 inHg , 1024.4 hPa
Clouds: Clear
Visibility: 10 miles , 16 km
2019/03/23 09:15 KAID 230915Z AUTO 26003KT 10SM CLR M04/M05 A3025 RMK AO2 T10361052
KBAK - Columbus/Balkala, Indiana, USA
Distance from station: SSE 40mi, 64km
Updated: Mar 22 2019 9:45pm
NOT Current
Clear
Clear
 Wind from NNW
Wind: NNW 6 mph , 9 km/h
Temperature: 36°F , 2°C
Wind Chill: 31°F , -1°C
Dew Point: 27°F , -3°C
Humidity: 70%
Barometer: 30.19 inHg , 1022.4 hPa
Clouds: Clear
Visibility: 10 miles , 16 km
2019/03/23 01:45 KBAK 230145Z 34005KT 10SM SKC 02/M03 A3019 RMK LAST
 
KBMG - Bloomington, Indiana, USA
Distance from station: SSW 48mi, 78km
Updated: Mar 23 2019 4:53am
Clear
Clear
 Wind from calm
Wind: Calm
Temperature: 27°F , -3°C
Dew Point: 23°F , -5°C
Humidity: 86%
Barometer: 30.24 inHg , 1024 hPa
Clouds: Clear
Visibility: 10 miles , 16 km
2019/03/23 08:53 KBMG 230853Z AUTO 00000KT 10SM CLR M03/M05 A3024 RMK AO2 SLP245 T10281050 50006 $
KOKK - Kokomo, Indiana, USA
Distance from station: N 53mi, 85km
Updated: Mar 23 2019 4:56am
Clear
Clear
 Wind from W
Wind: W 6 mph , 9 km/h
Temperature: 21°F , -6°C
Wind Chill: 13°F , -11°C
Dew Point: 19°F , -7°C
Humidity: 93%
Barometer: 30.25 inHg , 1024.4 hPa
Clouds: Clear
Visibility: 10 miles , 16 km
2019/03/23 08:56 KOKK 230856Z AUTO 26005KT 10SM CLR M06/M07 A3025 RMK AO2 SLP256 6//// T10561072 53009 FZRANO PNO $